Time;durP1;ratioP1;P1;durP2;ratioP2;P2;SDS_P1;SDS_P2;PMS_P1;PMS_P2;Temp;Humidity;BMP_temperature;BMP_pressure;BME280_temperature;BME280_humidity;BME280_pressure;Samples;Min_cycle;Max_cycle;Signal;HPM_P1;HPM_P2
2023/11/02 00:02:53;;;;;;;1.52;1.00;;;16.40;80.50;;;;;;10410205;28;20110;-58
2023/11/02 00:07:54;;;;;;;2.22;0.70;;;16.40;80.60;;;;;;10411407;28;20075;-58
2023/11/02 00:12:55;;;;;;;0.43;0.32;;;16.40;80.50;;;;;;10409753;28;20033;-58
2023/11/02 00:18:00;;;;;;;2.25;0.77;;;16.40;80.50;;;;;;10411127;28;20034;-58
2023/11/02 00:23:01;;;;;;;1.42;0.63;;;16.40;80.60;;;;;;10410291;28;20032;-56
2023/11/02 00:28:03;;;;;;;1.48;1.00;;;16.40;80.60;;;;;;10410616;28;20801;-58
2023/11/02 00:33:04;;;;;;;2.13;0.70;;;16.40;80.70;;;;;;10422304;28;20156;-58
2023/11/02 00:38:05;;;;;;;1.30;0.80;;;16.30;80.60;;;;;;10410307;28;20084;-58
2023/11/02 00:43:07;;;;;;;1.90;0.85;;;16.40;80.50;;;;;;10409734;28;20033;-57
2023/11/02 00:48:16;;;;;;;1.40;0.70;;;16.30;80.50;;;;;;10410154;28;20441;-58
2023/11/02 00:53:17;;;;;;;1.50;0.77;;;16.30;80.40;;;;;;10409261;28;20029;-58
2023/11/02 00:58:29;;;;;;;1.33;0.55;;;16.30;80.50;;;;;;10409796;28;20091;-58
2023/11/02 01:03:29;;;;;;;0.90;0.70;;;16.30;80.50;;;;;;10407881;28;20060;-58
2023/11/02 01:08:33;;;;;;;1.70;1.17;;;16.30;80.60;;;;;;10409251;28;20061;-58
2023/11/02 01:13:33;;;;;;;1.92;0.70;;;16.30;80.40;;;;;;10407424;28;20034;-58
2023/11/02 01:18:36;;;;;;;1.50;0.70;;;16.30;80.40;;;;;;10409256;28;20033;-59
2023/11/02 01:23:36;;;;;;;1.05;0.60;;;16.30;80.40;;;;;;10440544;28;20042;-58
2023/11/02 01:29:03;;;;;;;2.20;0.70;;;16.30;80.40;;;;;;10411248;28;20094;-58
2023/11/02 01:34:04;;;;;;;2.83;0.98;;;16.30;80.40;;;;;;10411758;28;20043;-58
2023/11/02 01:39:14;;;;;;;1.52;0.80;;;16.30;80.40;;;;;;10408247;28;20038;-58
2023/11/02 01:44:44;;;;;;;1.65;0.63;;;16.30;80.50;;;;;;10408422;28;20033;-58
2023/11/02 01:49:46;;;;;;;1.17;0.52;;;16.30;80.60;;;;;;10408580;28;20033;-58
2023/11/02 01:55:06;;;;;;;1.92;0.60;;;16.30;80.50;;;;;;10407161;28;20513;-58
2023/11/02 02:00:14;;;;;;;1.73;0.65;;;16.20;80.60;;;;;;10407140;28;20082;-58
2023/11/02 02:05:33;;;;;;;0.85;0.40;;;16.30;80.50;;;;;;10407717;28;20057;-58
2023/11/02 02:11:15;;;;;;;2.22;1.17;;;16.20;80.50;;;;;;10407936;28;20040;-58
2023/11/02 02:16:40;;;;;;;1.45;0.52;;;16.20;80.60;;;;;;10401147;28;20056;-58
2023/11/02 02:21:55;;;;;;;0.70;0.50;;;16.20;80.60;;;;;;10407736;28;20068;-58
2023/11/02 02:27:19;;;;;;;1.98;0.93;;;16.20;80.60;;;;;;10413784;28;20041;-58
2023/11/02 02:32:48;;;;;;;1.85;0.77;;;16.20;80.50;;;;;;10426110;28;20532;-58
2023/11/02 02:37:55;;;;;;;1.40;0.60;;;16.20;80.60;;;;;;10413551;28;20087;-58
2023/11/02 02:42:56;;;;;;;0.90;0.50;;;16.20;80.60;;;;;;10413192;28;20029;-58
2023/11/02 02:48:01;;;;;;;1.25;0.57;;;16.20;80.50;;;;;;10413281;28;20021;-58
2023/11/02 02:53:04;;;;;;;1.25;0.60;;;16.20;80.40;;;;;;10414024;28;20037;-58
2023/11/02 02:58:08;;;;;;;1.10;0.60;;;16.20;80.50;;;;;;10414234;28;20415;-58
2023/11/02 03:03:13;;;;;;;2.13;0.70;;;16.20;80.40;;;;;;10412246;28;20030;-58
2023/11/02 03:08:15;;;;;;;1.73;0.47;;;16.20;80.40;;;;;;10411757;28;20037;-59
2023/11/02 03:13:17;;;;;;;1.20;0.60;;;16.20;80.40;;;;;;10413084;28;20443;-59
2023/11/02 03:18:28;;;;;;;1.17;0.47;;;16.20;80.50;;;;;;10412040;28;20048;-56
2023/11/02 03:24:07;;;;;;;1.35;0.40;;;16.20;80.50;;;;;;10395817;28;20029;-59
2023/11/02 03:29:25;;;;;;;0.60;0.40;;;16.20;80.40;;;;;;10413048;28;20059;-57
2023/11/02 03:35:27;;;;;;;2.30;1.10;;;16.20;80.50;;;;;;10415519;28;20057;-58
2023/11/02 03:41:01;;;;;;;1.83;0.77;;;16.20;80.50;;;;;;10406747;28;20148;-58
2023/11/02 03:46:23;;;;;;;1.73;0.43;;;16.20;80.40;;;;;;10391210;28;20731;-58
2023/11/02 03:51:45;;;;;;;1.25;0.60;;;16.20;80.20;;;;;;10406230;28;20436;-58
2023/11/02 03:57:01;;;;;;;2.75;0.50;;;16.20;80.10;;;;;;10390647;28;20052;-57
2023/11/02 04:02:07;;;;;;;1.33;0.68;;;16.20;80.00;;;;;;10406057;28;20080;-59
2023/11/02 04:07:31;;;;;;;1.20;0.60;;;16.10;80.20;;;;;;10397953;28;20084;-58
2023/11/02 04:12:35;;;;;;;2.08;0.70;;;16.10;80.20;;;;;;10391675;28;20080;-58
2023/11/02 04:17:36;;;;;;;0.75;0.40;;;16.10;80.40;;;;;;10410928;28;20041;-58
2023/11/02 04:22:38;;;;;;;1.67;0.55;;;16.10;80.40;;;;;;10442802;28;20501;-58
2023/11/02 04:27:39;;;;;;;0.40;0.35;;;16.10;80.30;;;;;;10410299;28;20117;-57
2023/11/02 04:32:40;;;;;;;0.98;0.57;;;16.10;80.30;;;;;;10422880;28;20054;-58
2023/11/02 04:37:40;;;;;;;1.00;0.57;;;16.10;80.10;;;;;;10410091;28;20033;-57
2023/11/02 04:42:41;;;;;;;1.02;0.50;;;16.10;80.00;;;;;;10409053;28;20031;-58
2023/11/02 04:47:42;;;;;;;1.42;0.90;;;16.10;80.00;;;;;;10409305;28;20075;-57
2023/11/02 04:52:43;;;;;;;1.60;0.57;;;16.10;80.00;;;;;;10409923;28;20028;-58
2023/11/02 04:57:43;;;;;;;2.05;0.60;;;16.10;79.90;;;;;;10411035;28;20028;-58
2023/11/02 05:02:44;;;;;;;1.20;0.40;;;16.10;80.00;;;;;;10429775;28;20083;-57
2023/11/02 05:07:45;;;;;;;0.95;0.30;;;16.10;80.30;;;;;;10428274;28;20021;-58
2023/11/02 05:12:45;;;;;;;1.98;0.80;;;16.10;80.10;;;;;;10424154;28;20040;-58
2023/11/02 05:17:46;;;;;;;2.15;0.45;;;16.10;80.10;;;;;;10424437;28;20472;-58
2023/11/02 05:22:47;;;;;;;1.00;0.60;;;16.10;80.00;;;;;;10440659;28;20220;-58
2023/11/02 05:27:48;;;;;;;0.82;0.40;;;16.10;80.00;;;;;;10425238;28;20064;-58
2023/11/02 05:32:49;;;;;;;2.47;0.68;;;16.00;79.80;;;;;;10427983;28;20424;-58
2023/11/02 05:37:49;;;;;;;0.57;0.35;;;16.10;80.00;;;;;;10418330;28;20120;-58
2023/11/02 05:42:50;;;;;;;0.75;0.40;;;16.10;79.90;;;;;;10408371;28;20087;-58
2023/11/02 05:47:51;;;;;;;2.40;0.68;;;16.20;79.30;;;;;;10421267;28;20048;-59
2023/11/02 05:52:52;;;;;;;2.58;1.10;;;16.40;79.40;;;;;;10413232;28;20552;-58
2023/11/02 05:57:52;;;;;;;4.80;1.05;;;16.60;78.50;;;;;;10413574;28;20396;-59
2023/11/02 06:02:53;;;;;;;14.93;2.00;;;16.80;78.60;;;;;;10413272;28;20022;-58
2023/11/02 06:07:54;;;;;;;3.65;0.88;;;17.00;78.00;;;;;;10415221;28;20025;-57
2023/11/02 06:12:55;;;;;;;2.83;0.90;;;17.30;77.10;;;;;;10413418;28;20049;-58
2023/11/02 06:17:55;;;;;;;4.78;1.05;;;17.40;77.10;;;;;;10412127;28;20098;-60
2023/11/02 06:22:56;;;;;;;6.75;1.40;;;17.50;77.10;;;;;;10412289;28;20037;-57
2023/11/02 06:27:57;;;;;;;8.25;1.70;;;17.60;77.40;;;;;;10412034;28;20025;-57
2023/11/02 06:33:02;;;;;;;9.93;1.63;;;17.60;77.00;;;;;;10423872;28;20081;-57
2023/11/02 06:38:04;;;;;;;12.75;2.47;;;17.60;76.60;;;;;;10410782;28;20032;-59
2023/11/02 06:43:05;;;;;;;18.73;2.42;;;17.50;77.20;;;;;;10410632;28;20041;-57
2023/11/02 06:48:06;;;;;;;12.98;2.42;;;17.40;77.30;;;;;;10414157;28;20035;-57
2023/11/02 06:53:06;;;;;;;11.80;2.75;;;17.40;77.30;;;;;;10423733;28;20083;-58
2023/11/02 06:58:07;;;;;;;11.57;2.85;;;17.40;77.50;;;;;;10412684;28;20067;-57
2023/11/02 07:03:08;;;;;;;16.17;2.53;;;17.40;77.20;;;;;;10413783;28;20471;-57
2023/11/02 07:08:09;;;;;;;12.48;2.42;;;17.40;77.00;;;;;;10414050;28;20037;-57
2023/11/02 07:13:12;;;;;;;16.05;2.83;;;17.30;77.20;;;;;;10413014;28;20029;-56
2023/11/02 07:18:12;;;;;;;9.40;1.90;;;17.20;77.20;;;;;;10412012;28;20057;-57
2023/11/02 07:23:13;;;;;;;7.20;1.85;;;17.10;77.30;;;;;;10411434;28;20032;-57
2023/11/02 07:28:14;;;;;;;6.32;1.33;;;17.10;77.50;;;;;;10403953;28;20499;-57
2023/11/02 07:33:14;;;;;;;12.13;2.30;;;17.00;77.70;;;;;;10410435;28;20185;-56
2023/11/02 07:38:17;;;;;;;9.25;1.63;;;16.90;77.80;;;;;;10410700;28;20041;-57
2023/11/02 07:43:17;;;;;;;13.48;3.08;;;17.00;78.10;;;;;;10413828;28;20622;-56
2023/11/02 07:48:18;;;;;;;8.05;1.67;;;16.90;78.10;;;;;;10427613;28;20029;-57
2023/11/02 07:53:22;;;;;;;5.50;1.48;;;16.90;78.20;;;;;;10421268;28;20060;-56
2023/11/02 07:58:24;;;;;;;6.70;1.65;;;16.80;78.30;;;;;;10425753;28;20040;-56
2023/11/02 08:03:24;;;;;;;8.30;1.77;;;16.80;78.30;;;;;;10425822;28;20025;-56
2023/11/02 08:08:26;;;;;;;8.68;1.35;;;16.80;78.40;;;;;;10421291;28;20033;-57
2023/11/02 08:13:27;;;;;;;3.67;1.85;;;16.80;78.60;;;;;;10410155;28;20045;-56
2023/11/02 08:18:27;;;;;;;6.43;2.72;;;16.70;78.60;;;;;;10409320;28;20670;-57
2023/11/02 08:23:28;;;;;;;5.13;0.95;;;16.70;78.60;;;;;;10408681;28;20026;-57
2023/11/02 08:28:29;;;;;;;6.45;1.25;;;16.70;78.60;;;;;;10419474;28;20095;-56
2023/11/02 08:33:29;;;;;;;3.33;1.02;;;16.70;78.60;;;;;;10418208;28;20631;-57
2023/11/02 08:38:30;;;;;;;3.40;1.00;;;16.60;78.70;;;;;;10408604;28;20171;-57
2023/11/02 08:43:32;;;;;;;2.13;0.82;;;16.60;78.70;;;;;;10408814;28;20381;-57
2023/11/02 08:48:33;;;;;;;3.50;0.90;;;16.60;78.70;;;;;;10408093;28;20029;-56
2023/11/02 08:53:34;;;;;;;6.18;1.80;;;16.60;78.80;;;;;;10413921;28;20436;-57
2023/11/02 08:58:58;;;;;;;3.40;0.93;;;16.60;78.80;;;;;;10407661;28;20025;-57
2023/11/02 09:04:00;;;;;;;3.25;1.80;;;16.50;78.80;;;;;;10394688;28;20037;-56
2023/11/02 09:09:00;;;;;;;4.68;1.13;;;16.50;78.80;;;;;;10407829;28;20639;-57
2023/11/02 09:14:01;;;;;;;3.38;1.02;;;16.50;78.90;;;;;;10408378;28;20028;-57
2023/11/02 09:19:03;;;;;;;2.63;0.80;;;16.50;78.90;;;;;;10407335;28;20041;-56
2023/11/02 09:24:04;;;;;;;2.42;0.85;;;16.40;79.00;;;;;;10408197;28;20508;-57
2023/11/02 09:29:05;;;;;;;3.58;0.80;;;16.40;79.10;;;;;;10411978;28;20120;-57
2023/11/02 09:34:09;;;;;;;1.75;0.65;;;16.40;79.10;;;;;;10419078;28;20068;-57
2023/11/02 09:39:10;;;;;;;2.35;0.68;;;16.40;79.20;;;;;;10415752;28;20083;-56
2023/11/02 09:44:12;;;;;;;2.00;0.93;;;16.40;79.20;;;;;;10415546;28;20457;-57
2023/11/02 09:49:12;;;;;;;1.70;0.80;;;16.40;79.20;;;;;;10415372;28;20479;-56
2023/11/02 09:54:14;;;;;;;2.20;0.73;;;16.40;79.10;;;;;;10447344;28;20148;-57
2023/11/02 09:59:15;;;;;;;1.42;0.70;;;16.40;79.00;;;;;;10413799;28;20493;-57
2023/11/02 10:04:16;;;;;;;1.70;0.52;;;16.40;78.90;;;;;;10414506;28;20043;-57
2023/11/02 10:09:17;;;;;;;2.50;1.02;;;16.40;78.70;;;;;;10414494;28;20673;-57
2023/11/02 10:14:17;;;;;;;1.95;0.73;;;16.40;78.80;;;;;;10414361;28;20041;-56
2023/11/02 10:19:18;;;;;;;2.45;0.65;;;16.40;78.60;;;;;;10414310;28;20362;-58
2023/11/02 10:24:32;;;;;;;2.05;0.60;;;16.40;78.60;;;;;;10414078;28;20037;-57
2023/11/02 10:29:34;;;;;;;2.92;0.70;;;16.40;78.60;;;;;;10424158;28;20051;-57
2023/11/02 10:34:37;;;;;;;1.45;0.60;;;16.40;78.60;;;;;;10416196;28;20017;-57
2023/11/02 10:39:38;;;;;;;1.77;1.05;;;16.40;78.50;;;;;;10412920;28;20140;-56
2023/11/02 10:44:39;;;;;;;2.13;0.80;;;16.40;78.60;;;;;;10412597;28;20049;-57
2023/11/02 10:49:42;;;;;;;2.40;1.45;;;16.40;78.30;;;;;;10411252;28;20029;-57
2023/11/02 10:55:14;;;;;;;3.70;0.68;;;16.40;78.30;;;;;;10413411;28;20026;-57
2023/11/02 11:00:17;;;;;;;1.50;0.65;;;16.40;78.40;;;;;;10414753;28;20061;-57
2023/11/02 11:05:19;;;;;;;3.25;0.95;;;16.50;78.30;;;;;;10409319;28;20037;-58
2023/11/02 11:10:20;;;;;;;2.83;0.77;;;16.50;78.30;;;;;;10424239;28;20381;-57
2023/11/02 11:15:23;;;;;;;2.13;0.85;;;16.40;78.00;;;;;;10419687;28;20037;-57
2023/11/02 11:20:25;;;;;;;2.38;0.80;;;16.50;78.10;;;;;;10419558;28;20680;-57
2023/11/02 11:25:26;;;;;;;2.45;0.80;;;16.50;77.80;;;;;;10410890;28;20551;-57
2023/11/02 11:30:28;;;;;;;1.77;0.60;;;16.50;77.90;;;;;;10423376;28;20049;-56
2023/11/02 11:35:29;;;;;;;3.30;0.80;;;16.50;77.90;;;;;;10411923;28;20519;-57
2023/11/02 11:40:29;;;;;;;2.45;1.10;;;16.50;78.00;;;;;;10410903;28;20037;-57
2023/11/02 11:45:36;;;;;;;1.23;0.50;;;16.50;77.70;;;;;;10411153;28;20033;-57
2023/11/02 11:50:41;;;;;;;5.40;0.73;;;16.50;77.90;;;;;;10410481;28;20021;-57
2023/11/02 11:55:45;;;;;;;3.20;0.82;;;16.50;77.80;;;;;;10409821;28;20667;-57
2023/11/02 12:00:48;;;;;;;2.70;1.23;;;16.50;77.80;;;;;;10426822;28;20025;-57
2023/11/02 12:05:53;;;;;;;3.78;0.82;;;16.60;79.90;;;;;;10451327;28;20451;-57
2023/11/02 12:10:59;;;;;;;1.70;0.93;;;16.70;78.20;;;;;;10450917;28;20052;-57
2023/11/02 12:16:03;;;;;;;3.55;0.98;;;16.70;78.60;;;;;;10426342;28;20076;-57
2023/11/02 12:21:11;;;;;;;3.25;1.33;;;16.60;78.10;;;;;;10424342;28;20025;-57
2023/11/02 12:26:12;;;;;;;1.13;0.63;;;16.70;78.00;;;;;;10413271;28;20121;-57
2023/11/02 12:31:24;;;;;;;2.20;1.30;;;16.70;78.00;;;;;;10420743;28;20041;-57
2023/11/02 12:36:25;;;;;;;3.88;1.88;;;16.70;78.00;;;;;;10407173;28;20041;-55
2023/11/02 12:41:28;;;;;;;2.85;0.77;;;16.60;78.00;;;;;;10407056;28;20496;-57
2023/11/02 12:46:29;;;;;;;1.95;0.82;;;16.60;77.90;;;;;;10406701;28;20029;-57
2023/11/02 12:51:30;;;;;;;2.67;0.90;;;16.60;77.90;;;;;;10408588;28;20044;-57
2023/11/02 12:56:31;;;;;;;2.92;0.73;;;16.60;77.90;;;;;;10408668;28;20025;-57
2023/11/02 13:01:55;;;;;;;5.10;0.80;;;16.60;77.90;;;;;;10439842;28;20029;-57
2023/11/02 13:06:57;;;;;;;2.22;0.73;;;16.50;77.80;;;;;;10421030;28;20091;-57
2023/11/02 13:11:58;;;;;;;2.40;0.80;;;16.50;77.80;;;;;;10414681;28;20032;-57
2023/11/02 13:17:03;;;;;;;3.05;0.88;;;16.50;77.90;;;;;;10408473;28;20040;-57
2023/11/02 13:22:03;;;;;;;4.35;0.90;;;16.50;77.80;;;;;;10407447;28;20465;-57
2023/11/02 13:27:05;;;;;;;1.73;0.93;;;16.40;77.80;;;;;;10422637;28;20029;-57
2023/11/02 13:32:06;;;;;;;3.33;0.90;;;16.40;77.80;;;;;;10429129;28;20565;-57
2023/11/02 13:37:08;;;;;;;3.85;1.20;;;16.40;77.70;;;;;;10416341;28;20504;-57
2023/11/02 13:42:09;;;;;;;3.05;0.65;;;16.40;77.70;;;;;;10406823;28;20041;-57
2023/11/02 13:47:10;;;;;;;3.75;1.42;;;16.40;77.60;;;;;;10407488;28;20543;-57
2023/11/02 13:52:11;;;;;;;2.47;0.80;;;16.40;77.60;;;;;;10406764;28;20346;-57
2023/11/02 13:57:12;;;;;;;2.25;1.13;;;16.40;77.50;;;;;;10406991;28;20033;-57
2023/11/02 14:02:14;;;;;;;6.20;1.08;;;16.40;77.60;;;;;;10406370;28;20039;-57
2023/11/02 14:07:16;;;;;;;3.88;0.80;;;16.40;77.60;;;;;;10407229;28;20049;-57
2023/11/02 14:12:22;;;;;;;2.47;1.00;;;16.40;77.60;;;;;;10409033;28;20042;-57
2023/11/02 14:17:24;;;;;;;2.10;0.68;;;16.40;77.60;;;;;;10406622;28;20053;-57
2023/11/02 14:22:25;;;;;;;2.42;0.73;;;16.30;77.50;;;;;;10419698;28;20037;-57
2023/11/02 14:27:25;;;;;;;3.08;1.00;;;16.40;77.30;;;;;;10413896;28;20024;-56
2023/11/02 14:32:26;;;;;;;2.42;0.95;;;16.30;77.40;;;;;;10426129;28;20648;-56
2023/11/02 14:37:27;;;;;;;1.60;0.50;;;16.40;80.50;;;;;;10414197;28;20037;-57
2023/11/02 14:42:28;;;;;;;1.83;0.65;;;16.50;80.70;;;;;;10411625;28;20042;-57
2023/11/02 14:47:29;;;;;;;1.73;0.80;;;16.50;80.10;;;;;;10413261;28;20079;-57
2023/11/02 14:52:31;;;;;;;2.88;0.68;;;16.50;79.70;;;;;;10413341;28;20099;-56
2023/11/02 14:57:31;;;;;;;4.03;0.85;;;16.50;79.50;;;;;;10413144;28;20035;-56
2023/11/02 15:02:33;;;;;;;2.53;0.60;;;16.50;79.30;;;;;;10412799;28;20035;-57
2023/11/02 15:07:34;;;;;;;2.15;0.80;;;16.50;79.30;;;;;;10413339;28;20495;-57
2023/11/02 15:12:34;;;;;;;1.90;0.60;;;16.40;79.20;;;;;;10423820;28;20033;-57
2023/11/02 15:17:36;;;;;;;2.78;0.70;;;16.40;79.10;;;;;;10419078;28;20033;-57
2023/11/02 15:22:37;;;;;;;3.42;0.98;;;16.40;79.00;;;;;;10411868;28;20514;-55
2023/11/02 15:27:38;;;;;;;2.15;0.60;;;16.40;78.60;;;;;;10411793;28;20049;-57
2023/11/02 15:32:40;;;;;;;3.22;1.77;;;16.60;77.90;;;;;;10431339;28;20053;-57
2023/11/02 15:37:41;;;;;;;1.42;0.52;;;16.80;77.20;;;;;;10420108;28;20030;-57
2023/11/02 15:42:41;;;;;;;2.15;0.43;;;16.90;76.40;;;;;;10409206;28;20033;-57
2023/11/02 15:47:42;;;;;;;4.53;1.00;;;17.10;75.90;;;;;;10444110;28;20063;-56
2023/11/02 15:52:43;;;;;;;1.52;0.52;;;17.10;75.50;;;;;;10411123;28;20029;-57
2023/11/02 15:57:46;;;;;;;4.50;1.88;;;17.20;75.10;;;;;;10410551;28;20076;-56
2023/11/02 16:02:47;;;;;;;2.25;0.57;;;17.20;75.00;;;;;;10410288;28;20084;-56
2023/11/02 16:07:48;;;;;;;2.03;0.82;;;17.30;74.90;;;;;;10409564;28;20083;-57
2023/11/02 16:12:48;;;;;;;1.33;0.50;;;17.20;74.90;;;;;;10410264;28;20575;-57
2023/11/02 16:17:49;;;;;;;1.08;0.43;;;17.30;74.90;;;;;;10412309;28;20396;-57
2023/11/02 16:22:50;;;;;;;3.05;0.70;;;17.20;74.70;;;;;;10415013;28;20041;-57
2023/11/02 16:27:51;;;;;;;2.40;0.50;;;17.20;75.30;;;;;;10409789;28;20104;-57
2023/11/02 16:32:51;;;;;;;2.47;0.43;;;17.30;74.50;;;;;;10409812;28;20037;-57
2023/11/02 16:37:53;;;;;;;3.50;0.68;;;17.30;74.60;;;;;;10408698;28;20036;-56
2023/11/02 16:42:54;;;;;;;1.17;0.50;;;17.30;74.70;;;;;;10406532;28;20040;-57
2023/11/02 16:47:55;;;;;;;5.97;3.35;;;17.20;74.90;;;;;;10406563;28;20051;-57
2023/11/02 16:52:55;;;;;;;1.95;0.40;;;17.20;75.20;;;;;;10406867;28;20473;-56
2023/11/02 16:57:56;;;;;;;2.28;1.08;;;17.10;75.30;;;;;;10406319;28;20041;-59
2023/11/02 17:02:57;;;;;;;2.20;0.60;;;17.00;75.50;;;;;;10406275;28;20037;-58
2023/11/02 17:08:01;;;;;;;9.15;2.20;;;17.20;75.20;;;;;;10408911;28;20033;-56
2023/11/02 17:13:01;;;;;;;21.20;3.10;;;17.20;74.80;;;;;;10409065;28;20041;-59
2023/11/02 17:18:02;;;;;;;13.68;2.53;;;17.20;74.00;;;;;;10409195;28;20056;-59
2023/11/02 17:23:03;;;;;;;11.50;1.90;;;17.40;73.50;;;;;;10408959;28;20037;-56
2023/11/02 17:28:04;;;;;;;11.00;2.30;;;17.40;75.20;;;;;;10407999;28;20637;-57
2023/11/02 17:33:04;;;;;;;16.42;3.97;;;17.50;75.60;;;;;;10408784;28;20049;-58
2023/11/02 17:38:05;;;;;;;9.57;1.95;;;17.60;75.80;;;;;;10408741;28;20117;-57
2023/11/02 17:43:06;;;;;;;9.48;1.63;;;17.60;75.90;;;;;;10408464;28;20080;-58
2023/11/02 17:48:08;;;;;;;16.55;1.90;;;17.60;76.00;;;;;;10413102;28;20424;-58
2023/11/02 17:53:09;;;;;;;8.13;2.08;;;17.50;76.40;;;;;;10405555;28;20388;-57
2023/11/02 17:58:10;;;;;;;13.15;2.35;;;17.50;76.60;;;;;;10413093;28;20037;-58
2023/11/02 18:03:13;;;;;;;13.15;1.90;;;17.50;76.40;;;;;;10413029;28;20018;-58
2023/11/02 18:08:14;;;;;;;16.52;2.63;;;17.50;76.20;;;;;;10412654;28;20033;-58
2023/11/02 18:13:15;;;;;;;15.60;2.38;;;17.40;76.30;;;;;;10413004;28;20077;-58
2023/11/02 18:18:20;;;;;;;10.13;1.77;;;17.30;76.60;;;;;;10412395;28;20037;-59
2023/11/02 18:23:22;;;;;;;11.63;2.97;;;17.10;76.70;;;;;;10413594;28;20022;-58
2023/11/02 18:28:23;;;;;;;6.15;1.55;;;17.10;76.90;;;;;;10415727;28;20029;-58
2023/11/02 18:33:25;;;;;;;10.98;1.75;;;17.00;76.80;;;;;;10425677;28;20050;-58
2023/11/02 18:38:26;;;;;;;5.95;1.90;;;17.00;76.70;;;;;;10412585;28;20045;-58
2023/11/02 18:43:28;;;;;;;7.25;1.75;;;17.00;76.80;;;;;;10414201;28;20029;-58
2023/11/02 18:48:29;;;;;;;5.90;1.10;;;17.00;76.90;;;;;;10414384;28;20014;-58
2023/11/02 18:53:31;;;;;;;4.38;1.27;;;16.90;76.90;;;;;;10414542;28;20037;-57
2023/11/02 18:58:32;;;;;;;3.85;1.02;;;16.90;76.90;;;;;;10414052;28;20040;-58
2023/11/02 19:03:33;;;;;;;10.95;2.55;;;16.80;77.00;;;;;;10413591;28;20029;-58
2023/11/02 19:08:33;;;;;;;6.70;1.10;;;16.80;77.00;;;;;;10410133;28;20037;-57
2023/11/02 19:13:34;;;;;;;4.45;1.00;;;16.80;76.70;;;;;;10409702;28;20492;-57
2023/11/02 19:18:35;;;;;;;7.45;1.92;;;16.80;76.60;;;;;;10422500;28;20037;-57
2023/11/02 19:23:36;;;;;;;5.43;1.70;;;16.90;76.30;;;;;;10425902;28;20083;-57
2023/11/02 19:28:38;;;;;;;7.13;1.10;;;16.90;76.60;;;;;;10427774;28;20032;-57
2023/11/02 19:33:39;;;;;;;5.47;0.98;;;17.00;76.50;;;;;;10426705;28;20029;-57
2023/11/02 19:38:40;;;;;;;7.00;1.02;;;17.00;76.50;;;;;;10425656;28;20029;-56
2023/11/02 19:43:41;;;;;;;3.72;1.02;;;17.00;76.10;;;;;;10420144;28;20025;-57
2023/11/02 19:48:42;;;;;;;4.55;0.80;;;16.90;76.10;;;;;;10411167;28;20031;-57
2023/11/02 19:53:42;;;;;;;4.72;0.90;;;16.90;76.20;;;;;;10411924;28;20053;-56
2023/11/02 19:58:43;;;;;;;4.43;1.52;;;16.90;76.10;;;;;;10442913;28;20028;-59
2023/11/02 20:03:44;;;;;;;3.42;0.73;;;16.90;76.10;;;;;;10411918;28;20040;-56
2023/11/02 20:08:45;;;;;;;5.20;1.35;;;16.90;76.80;;;;;;10414173;28;20029;-58
2023/11/02 20:13:46;;;;;;;3.97;0.93;;;16.90;76.80;;;;;;10420437;28;20048;-58
2023/11/02 20:18:47;;;;;;;2.88;0.70;;;16.90;76.90;;;;;;10426197;28;20033;-58
2023/11/02 20:23:48;;;;;;;2.83;0.77;;;16.90;76.90;;;;;;10426453;28;20488;-58
2023/11/02 20:28:49;;;;;;;2.50;1.23;;;16.90;76.90;;;;;;10425944;28;20472;-57
2023/11/02 20:33:50;;;;;;;3.42;0.70;;;16.90;76.90;;;;;;10424755;28;20116;-58
2023/11/02 20:38:51;;;;;;;2.97;0.60;;;16.80;76.90;;;;;;10422840;28;20041;-57
2023/11/02 20:43:51;;;;;;;3.80;0.85;;;16.90;77.00;;;;;;10422322;28;20516;-58
2023/11/02 20:48:52;;;;;;;6.55;1.83;;;16.80;76.90;;;;;;10422561;28;20024;-58
2023/11/02 20:53:53;;;;;;;2.75;1.42;;;16.80;77.10;;;;;;10424499;28;20384;-58
2023/11/02 20:58:54;;;;;;;2.05;0.60;;;16.70;77.00;;;;;;10423774;28;20031;-58
2023/11/02 21:03:55;;;;;;;2.45;0.40;;;16.70;77.20;;;;;;10425238;28;20043;-58
2023/11/02 21:08:55;;;;;;;4.28;0.82;;;16.70;77.30;;;;;;10422059;28;20025;-57
2023/11/02 21:13:56;;;;;;;5.53;0.82;;;16.70;77.30;;;;;;10412967;28;20032;-58
2023/11/02 21:18:57;;;;;;;1.92;0.52;;;16.60;77.20;;;;;;10402229;28;20055;-57
2023/11/02 21:23:57;;;;;;;2.15;0.63;;;16.60;77.30;;;;;;10404313;28;20017;-58
2023/11/02 21:28:58;;;;;;;1.38;0.63;;;16.60;77.40;;;;;;10404907;28;20056;-58
2023/11/02 21:33:59;;;;;;;3.78;0.70;;;16.60;77.50;;;;;;10408621;28;20021;-57
2023/11/02 21:38:59;;;;;;;3.45;1.00;;;16.60;77.50;;;;;;10408217;28;20041;-58
2023/11/02 21:44:00;;;;;;;5.20;0.80;;;16.60;77.50;;;;;;10408485;28;20041;-58
2023/11/02 21:49:01;;;;;;;2.03;0.70;;;16.50;77.60;;;;;;10408088;28;20039;-58
2023/11/02 21:54:02;;;;;;;3.08;0.88;;;16.50;77.70;;;;;;10408399;28;20025;-58
2023/11/02 21:59:07;;;;;;;1.90;0.45;;;16.50;77.70;;;;;;10407959;28;20036;-58
2023/11/02 22:04:08;;;;;;;2.67;0.68;;;16.50;77.70;;;;;;10408063;28;20033;-58
2023/11/02 22:09:11;;;;;;;0.77;0.45;;;16.50;77.80;;;;;;10407620;28;20461;-58
2023/11/02 22:14:12;;;;;;;1.58;0.40;;;16.50;77.80;;;;;;10408165;28;20072;-58
2023/11/02 22:19:13;;;;;;;2.75;0.80;;;16.40;77.80;;;;;;10407702;28;20026;-58
2023/11/02 22:24:13;;;;;;;2.97;0.70;;;16.40;77.80;;;;;;10407011;28;20345;-58
2023/11/02 22:29:14;;;;;;;1.23;0.38;;;16.40;77.80;;;;;;10414266;28;20045;-58
2023/11/02 22:34:15;;;;;;;1.75;0.50;;;16.40;77.80;;;;;;10413113;28;20151;-58
2023/11/02 22:39:15;;;;;;;1.35;0.50;;;16.40;77.80;;;;;;10407514;28;20022;-58
2023/11/02 22:44:16;;;;;;;1.92;0.85;;;16.40;77.90;;;;;;10415200;28;20603;-58
2023/11/02 22:49:17;;;;;;;1.30;0.40;;;16.30;77.90;;;;;;10414118;28;20037;-58
2023/11/02 22:54:18;;;;;;;1.35;0.30;;;16.30;77.80;;;;;;10414776;28;20431;-58
2023/11/02 22:59:18;;;;;;;1.00;0.50;;;16.30;77.90;;;;;;10414083;28;20036;-58
2023/11/02 23:04:19;;;;;;;2.08;0.57;;;16.30;77.90;;;;;;10413784;28;20022;-58
2023/11/02 23:09:20;;;;;;;0.90;0.55;;;16.30;77.80;;;;;;10413528;28;20026;-58
2023/11/02 23:14:21;;;;;;;1.95;0.30;;;16.30;77.80;;;;;;10413932;28;20074;-59
2023/11/02 23:19:21;;;;;;;0.98;0.40;;;16.30;77.90;;;;;;10413461;28;20029;-58
2023/11/02 23:24:22;;;;;;;1.02;0.28;;;16.30;77.90;;;;;;10413314;28;20038;-58
2023/11/02 23:29:23;;;;;;;1.63;0.50;;;16.30;77.90;;;;;;10412864;28;20037;-58
2023/11/02 23:34:25;;;;;;;1.23;0.40;;;16.20;77.80;;;;;;10413272;28;20449;-58
2023/11/02 23:39:25;;;;;;;1.02;0.30;;;16.20;77.80;;;;;;10412475;28;20037;-58
2023/11/02 23:44:26;;;;;;;1.30;0.40;;;16.20;77.80;;;;;;10412826;28;20021;-59
2023/11/02 23:49:27;;;;;;;1.35;0.43;;;16.20;77.80;;;;;;10412302;28;20029;-58
2023/11/02 23:54:27;;;;;;;0.52;0.35;;;16.20;77.70;;;;;;10412258;28;20030;-58
2023/11/02 23:59:28;;;;;;;0.43;0.20;;;16.20;77.80;;;;;;10411732;28;20485;-58
